Flight Track Log - Related Links

Times and Time Zones

All times are in EDT time to prevent confusion due to time zone crossing. See the KAL243 flight status page for this flight to view local times or setup timezone preferences in your user account.

Time Position Orientation Groundspeed Altitude Reporting Facility
EDT Latitude Longitude Course Direction KTS MPH feet Rate Location/Type
Fri 03:12:42 AM 33.6080 -84.4950 246° West 177 204 3,300  Level FlightAware ADS-B
Fri 03:13:17 AM 33.5980 -84.5230 247° West 177 204 3,700 1,477 Climbing FlightAware ADS-B
Fri 03:13:47 AM 33.5880 -84.5590 252° West 229 264 4,900 1,636 Climbing FlightAware ADS-B
Fri 03:14:12 AM 33.5870 -84.5840 267° West 260 299 5,200 2,571 Climbing FlightAware ADS-B
Fri 03:14:57 AM 33.5910 -84.6620 274° West 275 316 7,900 3,600 Climbing FlightAware ADS-B
Fri 03:15:22 AM 33.5920 -84.7030 272° West 278 320 9,400 2,720 Climbing FlightAware ADS-B
Fri 03:16:12 AM 33.5960 -84.7830 273° West 314 361 11,300 2,229 Climbing FlightAware ADS-B
Fri 03:17:07 AM 33.6000 -84.8810 273° West 352 405 13,300 2,700 Climbing FlightAware ADS-B
Fri 03:17:52 AM 33.6040 -84.9660 273° West 367 422 15,800 3,652 Climbing FlightAware ADS-B
Fri 03:19:02 AM 33.6110 -85.1320 273° West 388 447 20,300 2,496 Climbing FlightAware ADS-B
Fri 03:19:57 AM 33.6140 -85.2260 272° West 389 448 21,000 2,600 Climbing FlightAware ADS-B
Fri 03:20:32 AM 33.6190 -85.3310 273° West 423 487 24,200 3,825 Climbing FlightAware ADS-B
Fri 03:21:17 AM 33.6230 -85.4350 273° West 433 498 26,100 1,968 Climbing FlightAware ADS-B
Fri 03:22:37 AM 33.6300 -85.6290 273° West 448 516 28,300 1,015 Climbing FlightAware ADS-B
Fri 03:23:27 AM 33.6330 -85.7340 272° West 448 516 28,300  Level FlightAware ADS-B
Fri 03:24:07 AM 33.6350 -85.8190 272° West 448 516 28,300  Level FlightAware ADS-B
Fri 03:24:47 AM 33.6380 -85.9040 272° West 448 516 28,300 4,275 Level FlightAware ADS-B
Fri 03:25:27 AM 33.6450 -86.0570 273° West 444 511 34,000 4,024 Climbing FlightAware ADS-B
Fri 03:26:12 AM 33.6490 -86.1570 273° West 444 511 34,000 1,617 Level FlightAware ADS-B
Fri 03:27:22 AM 33.6540 -86.3390 272° West 419 482 37,100 2,182 Climbing FlightAware ADS-B
Fri 03:28:02 AM 33.6570 -86.4290 272° West 406 467 38,000 675 Climbing FlightAware ADS-B
Fri 03:28:42 AM 33.6590 -86.5160 272° West 393 452 38,000  Level FlightAware ADS-B
Fri 03:30:29 AM 33.6660 -86.7526 272° West 393 452 38,000  Level FlightAware ADS-B
Fri 03:31:12 AM 33.6688 -86.8457 272° West 391 450 38,000  Level FlightAware ADS-B
Fri 03:32:27 AM 33.6600 -86.9970 266° West 389 448 38,000  Level FlightAware ADS-B
Fri 03:33:17 AM 33.6510 -87.0890 263° West 389 448 38,000  Level FlightAware ADS-B
Fri 03:33:57 AM 33.6430 -87.1610 262° West 389 448 38,000  Level FlightAware ADS-B
Fri 03:34:37 AM 33.6360 -87.2340 263° West 389 448 38,000  Level FlightAware ADS-B
Fri 03:35:17 AM 33.6280 -87.3070 263° West 389 448 38,000  Level FlightAware ADS-B
Fri 03:35:57 AM 33.6210 -87.3800 263° West 389 448 38,000  Level FlightAware ADS-B
Fri 03:36:47 AM 33.6110 -87.4710 263° West 389 448 38,000  Level FlightAware ADS-B
Fri 03:37:27 AM 33.6040 -87.5440 263° West 389 448 38,000  Level FlightAware ADS-B
Fri 03:38:07 AM 33.5970 -87.6170 263° West 389 448 38,000  Level FlightAware ADS-B
Fri 03:38:47 AM 33.5890 -87.6900 263° West 389 448 38,000  Level FlightAware ADS-B
Fri 03:39:27 AM 33.5820 -87.7630 263° West 389 448 38,000  Level FlightAware ADS-B
Fri 03:40:07 AM 33.5740 -87.8360 263° West 389 448 38,000  Level FlightAware ADS-B
Fri 03:40:57 AM 33.5650 -87.9270 263° West 389 448 38,000  Level FlightAware ADS-B
Fri 03:41:37 AM 33.5570 -88.0000 263° West 389 448 38,000  Level FlightAware ADS-B
Fri 03:42:20 AM 33.5161 -88.2569 263° West 390 449 38,000  Level Memphis Center
Fri 03:43:20 AM 33.5372 -88.3833 281° West 390 449 38,000  Level Memphis Center
Fri 03:44:20 AM 33.5931 -88.4944 301° West 384 442 38,000  Level Memphis Center
Fri 03:45:20 AM 33.6594 -88.6078 305° West 391 450 38,000  Level Memphis Center
Fri 03:46:20 AM 33.7236 -88.7189 305° West 401 461 38,000  Level Memphis Center
Fri 03:47:20 AM 33.7672 -88.8606 290° West 408 470 38,000  Level Memphis Center
Fri 03:48:20 AM 33.7811 -88.9878 278° West 398 458 38,000  Level Memphis Center
Fri 03:49:20 AM 33.7719 -89.1203 265° West 398 458 38,000  Level Memphis Center
Fri 03:50:20 AM 33.7481 -89.2456 257° West 393 452 38,000  Level Memphis Center
Fri 03:51:20 AM 33.7139 -89.3708 252° West 388 447 38,000  Level Memphis Center
Fri 03:52:20 AM 33.6792 -89.4958 252° West 394 453 38,000  Level Memphis Center
Fri 03:53:20 AM 33.6444 -89.6236 252° West 404 465 38,000  Level Memphis Center
Fri 03:54:20 AM 33.6119 -89.7486 253° West 404 465 38,000  Level Memphis Center
Fri 03:55:20 AM 33.5747 -89.8761 251° West 404 465 38,000  Level Memphis Center
Fri 03:56:20 AM 33.5419 -90.0008 253° West 404 465 38,000  Level Memphis Center
Fri 03:57:20 AM 33.5108 -90.1131 252° West 404 465 38,000  Level Memphis Center
Fri 03:58:20 AM 33.4756 -90.2378 251° West 404 465 38,000  Level Memphis Center
Fri 03:59:20 AM 33.4653 -90.3697 265° West 398 458 38,000  Level Memphis Center
Fri 04:00:20 AM 33.4692 -90.5042 272° West 403 464 38,000  Level Memphis Center
Fri 04:01:20 AM 33.4733 -90.6386 272° West 403 464 38,000  Level Memphis Center
Fri 04:02:20 AM 33.4750 -90.7756 271° West 403 464 38,000  Level Memphis Center
Fri 04:03:20 AM 33.4786 -90.9075 272° West 403 464 38,000  Level Memphis Center
Fri 04:04:20 AM 33.4800 -91.0422 271° West 403 464 38,000  Level Memphis Center
Fri 04:06:13 AM 33.4958 -91.2889 274° West 412 474 38,000  Level Fort Worth Center
Fri 04:07:13 AM 33.4981 -91.4208 271° West 407 468 38,000  Level Fort Worth Center
Fri 04:08:13 AM 33.5003 -91.5550 271° West 407 468 38,000  Level Fort Worth Center
Fri 04:09:13 AM 33.5025 -91.6894 271° West 407 468 38,000  Level Fort Worth Center
Fri 04:10:13 AM 33.5042 -91.8239 271° West 407 468 38,000  Level Fort Worth Center
Fri 04:11:13 AM 33.5019 -91.9608 269° West 407 468 38,000  Level Fort Worth Center
Fri 04:12:13 AM 33.5058 -92.0975 272° West 407 468 38,000  Level Fort Worth Center
Fri 04:13:13 AM 33.5092 -92.2319 272° West 407 468 38,000  Level Fort Worth Center
Fri 04:18:37 AM 33.5115 -92.9922 272° West 414 476 38,000  Level FlightAware ADS-B
Fri 04:19:30 AM 33.5122 -93.1160 270° West 417 480 38,000  Level FlightAware ADS-B
Fri 04:20:01 AM 33.5126 -93.1854 270° West 419 482 38,000  Level FlightAware ADS-B
Fri 04:20:31 AM 33.5130 -93.2555 270° West 420 483 38,000  Level FlightAware ADS-B
Fri 04:21:36 AM 33.5135 -93.4067 270° West 422 486 38,000  Level FlightAware ADS-B
Fri 04:22:17 AM 33.5140 -93.4950 270° West 422 486 38,000  Level FlightAware ADS-B
Fri 04:22:30 AM 33.5139 -93.5326 270° West 423 487 38,000  Level FlightAware ADS-B
Fri 04:23:37 AM 33.5140 -93.6750 270° West 424 488 38,000  Level FlightAware ADS-B
Fri 04:23:59 AM 33.5142 -93.7420 270° West 425 489 38,000  Level FlightAware ADS-B
Fri 04:24:37 AM 33.5120 -93.8190 268° West 420 483 38,000  Level FlightAware ADS-B
Fri 04:24:49 AM 33.5065 -93.8585 261° West 420 483 38,000  Level FlightAware ADS-B
Fri 04:25:19 AM 33.4946 -93.9269 258° West 419 482 38,000  Level FlightAware ADS-B
Fri 04:25:52 AM 33.4830 -93.9930 258° West 415 478 38,000  Level FlightAware ADS-B
Fri 04:26:57 AM 33.4560 -94.1360 257° West 413 475 38,000  Level FlightAware ADS-B
Fri 04:27:37 AM 33.4420 -94.2110 257° West 413 475 38,000  Level FlightAware ADS-B
Fri 04:28:17 AM 33.4270 -94.2870 257° West 413 475 38,000  Level FlightAware ADS-B
Fri 04:28:57 AM 33.4130 -94.3630 258° West 413 475 38,000 -2,682 Level FlightAware ADS-B
Fri 04:29:42 AM 33.3910 -94.4990 259° West 400 460 34,200 -3,176 Descending FlightAware ADS-B
Fri 04:30:22 AM 33.3750 -94.5840 257° West 388 447 33,500 -1,200 Descending FlightAware ADS-B
Fri 04:31:07 AM 33.3580 -94.6800 258° West 381 438 32,500 -1,129 Descending FlightAware ADS-B
Fri 04:31:47 AM 33.3430 -94.7600 257° West 369 425 31,900 -1,200 Descending FlightAware ADS-B
Fri 04:32:32 AM 33.3260 -94.8500 257° West 366 421 30,800 -1,482 Descending FlightAware ADS-B
Fri 04:33:12 AM 33.3110 -94.9300 257° West 376 433 29,800 -1,575 Descending FlightAware ADS-B
Fri 04:33:52 AM 33.2960 -95.0090 257° West 377 434 28,700 -1,624 Descending FlightAware ADS-B
Fri 04:34:37 AM 33.2790 -95.1010 258° West 377 434 27,500 -1,694 Descending FlightAware ADS-B
Fri 04:35:17 AM 33.2640 -95.1830 258° West 371 427 26,300 -1,650 Descending FlightAware ADS-B
Fri 04:35:57 AM 33.2490 -95.2600 257° West 364 419 25,300 -1,553 Descending FlightAware ADS-B
Fri 04:36:42 AM 33.2320 -95.3480 257° West 356 410 24,100 -1,553 Descending FlightAware ADS-B
Fri 04:37:22 AM 33.2180 -95.4240 258° West 348 400 23,100 -1,482 Descending FlightAware ADS-B
Fri 04:38:07 AM 33.2020 -95.5050 257° West 339 390 22,000 -1,553 Descending FlightAware ADS-B
Fri 04:38:47 AM 33.1870 -95.5810 257° West 333 383 20,900 -1,500 Descending FlightAware ADS-B
Fri 04:39:27 AM 33.1740 -95.6490 257° West 327 376 20,000 -1,412 Descending FlightAware ADS-B
Fri 04:40:12 AM 33.1590 -95.7290 257° West 323 372 18,900 -1,482 Descending FlightAware ADS-B
Fri 04:40:52 AM 33.1450 -95.7990 257° West 320 368 17,900 -1,425 Descending FlightAware ADS-B
Fri 04:41:32 AM 33.1316 -95.8688 257° West 318 366 17,000 -1,360 Descending FlightAware ADS-B
Fri 04:42:07 AM 33.1210 -95.9250 257° West 316 364 16,200 -1,360 Descending FlightAware ADS-B
Fri 04:42:47 AM 33.1070 -95.9950 257° West 311 358 15,300 -1,350 Descending FlightAware ADS-B
Fri 04:43:27 AM 33.0940 -96.0590 256° West 304 350 14,400 -1,350 Descending FlightAware ADS-B
Fri 04:44:07 AM 33.0820 -96.1230 257° West 294 338 13,500 -1,333 Descending FlightAware ADS-B
Fri 04:44:57 AM 33.0790 -96.2020 267° West 281 323 12,400 -1,067 Descending FlightAware ADS-B
Fri 04:45:37 AM 33.0820 -96.2620 273° West 262 302 11,900 -1,050 Descending FlightAware ADS-B
Fri 04:46:17 AM 33.0850 -96.3190 274° West 257 296 11,000 -1,129 Descending FlightAware ADS-B
Fri 04:47:02 AM 33.0880 -96.3800 273° West 252 290 10,300 -1,029 Descending FlightAware ADS-B
Fri 04:47:27 AM 33.0910 -96.4160 276° West 249 287 9,800 -1,200 Descending FlightAware ADS-B
Fri 04:47:57 AM 33.0930 -96.4570 273° West 247 284 9,200 -1,000 Descending FlightAware ADS-B
Fri 04:48:27 AM 33.0950 -96.4970 273° West 236 272 8,800 -873 Descending FlightAware ADS-B
Fri 04:48:52 AM 33.0960 -96.5280 272° West 232 267 8,400 -1,200 Descending FlightAware ADS-B
Fri 04:49:22 AM 33.0980 -96.5690 273° West 237 273 7,700 -1,309 Descending FlightAware ADS-B
Fri 04:49:47 AM 33.0980 -96.6000 270° West 236 272 7,200 -1,091 Descending FlightAware ADS-B
Fri 04:50:17 AM 33.1000 -96.6400 273° West 235 270 6,700 -1,100 Descending FlightAware ADS-B
Fri 04:50:47 AM 33.1010 -96.6780 272° West 238 274 6,100 -1,091 Descending FlightAware ADS-B
Fri 04:51:12 AM 33.1020 -96.7090 272° West 238 274 5,700 -1,080 Descending FlightAware ADS-B
Fri 04:51:37 AM 33.1040 -96.7440 274° West 238 274 5,200 -1,091 Descending FlightAware ADS-B
Fri 04:52:07 AM 33.1060 -96.7830 274° West 238 274 4,700 -800 Descending FlightAware ADS-B
Fri 04:52:37 AM 33.1070 -96.8210 272° West 229 264 4,400 -500 Descending FlightAware ADS-B
Fri 04:53:07 AM 33.1070 -96.8590 270° West 217 250 4,200 -545 Descending FlightAware ADS-B
Fri 04:53:32 AM 33.1080 -96.8870 272° West 212 244 3,900 -655 Descending FlightAware ADS-B
Fri 04:54:02 AM 33.1090 -96.9220 272° West 212 244 3,600 -600 Descending FlightAware ADS-B
Fri 04:54:32 AM 33.1110 -96.9590 274° West 211 243 3,300 -480 Descending FlightAware ADS-B
Fri 04:54:52 AM 33.1120 -96.9820 273° West 204 235 3,200 -267 Descending FlightAware ADS-B
Fri 04:55:17 AM 33.1120 -97.0060 270° West 198 228 3,100 -133 Descending FlightAware ADS-B
Fri 04:55:37 AM 33.1050 -97.0280 249° West 194 223 3,100 -171 Level FlightAware ADS-B
Fri 04:55:52 AM 33.0940 -97.0350 208° Southwest 194 223 3,000 -133 Descending FlightAware ADS-B
Fri 04:56:22 AM 33.0710 -97.0460 202° Southwest 182 209 3,000 120 Level FlightAware ADS-B
Fri 04:56:42 AM 33.0530 -97.0500 191° South 185 213 3,100 -240 Climbing FlightAware ADS-B
Fri 04:57:12 AM 33.0280 -97.0500 180° South 185 213 2,800 -831 Descending FlightAware ADS-B
Fri 04:57:47 AM 32.9980 -97.0500 180° South 169 194 2,200 -900 Descending FlightAware ADS-B
Fri 04:58:12 AM 32.9800 -97.0500 180° South 162 186 1,900 -462 Descending FlightAware ADS-B
Fri 04:58:52 AM 32.9530 -97.0500 180° South 160 184 1,700 -300 Descending FlightAware ADS-B

Login

Don't have an account? Register now (free) for customized features, flight alerts, and more!